Aeroboteco Virtual Airlines! Uma nuvem a frente.



 INFORMAÇÕES METEOROLÓGICAS
METAR FOR GABS
ADDS - METARS form results

(0127 UTC 20 March 2019)
Data provider http://aviationweather.gov/metar/data/
 
METAR text: GABS 200100Z 06004KT CAVOK 30/12 Q1011 NOSIG
Conditions at: GABS (BAMAKO/SENOU (MI, ML) observed 0100 UTC 20 March 2019
Temperature: 30.0°C (86°F)
Dewpoint: 12.0°C (54°F) [RH = 33%]
Pressure (altimeter): 29.85 inches Hg (1011.0 mb)
Winds: from the ENE (60 degrees) at 5 MPH (4 knots; 2.1 m/s)
Visibility: 6 or more miles (10+ km)
Ceiling: ceiling and visibility are OK
Clouds: unknown
Weather: no significant weather observed at this time

METAR text: GABS 200030Z VRB02KT CAVOK 30/13 Q1011 NOSIG
Conditions at: GABS (BAMAKO/SENOU (MI, ML) observed 0030 UTC 20 March 2019
Temperature: 30.0°C (86°F)
Dewpoint: 13.0°C (55°F) [RH = 35%]
Pressure (altimeter): 29.85 inches Hg (1011.0 mb)
Winds: variable direction winds at 2 MPH (2 knots; 1.0 m/s)
Visibility: 6 or more miles (10+ km)
Ceiling: ceiling and visibility are OK
Clouds: unknown
Weather: no significant weather observed at this time

Forecast for: GABS (BAMAKO/SENOU (MI, ML)
Text: TAF GABS 192300Z 2000/2106 23006KT 8000 NSC
Forecast period: 0000 UTC 20 March 2019 to 0600 UTC 21 March 2019
Forecast type: FROM: standard forecast or significant change
Winds: from the SW (230 degrees) at 7 MPH (6 knots; 3.1 m/s)
Visibility: 5 miles (8 km)
Ceiling: unknown
Clouds: missing
Weather: no significant weather forecast for this period
Text: PROB30
Forecast period: 0900 to 1400 UTC 20 March 2019
Forecast type: TEMPORARY: The following changes expected for less than half the time period
Visibility: 2.49 miles (4.01 km)
Ceiling: unknown
Clouds: missing
Weather: DU  (widespread dust)

 MAPA DO AEROPORTO

 INFORMAÇÕES DA PISTA
Pista 06 Tamanho da pista 8879 ft Largura da pista 148 ft
Elevação da pista 1187 ft Ranhura da pista 0 ft Proa da pista 57
Pista 24 Tamanho da pista 8879 ft Largura da pista 148 ft
Elevação da pista 1244 ft Ranhura da pista 0 ft Proa da pista 237

 FREQUÊNCIAS DO AEROPORTO
Tipo A/G Nome A/G Frequência 667.3 MHZ
Tipo ACC Nome ACC Frequência 119.1 MHZ
Tipo TWR Nome TWR Frequência 118.3 MHZ

 AUXÍLIOS DE NAVEGAÇÃO PRÓXIMOS AO AEROPORTO
Tipo VOR-DME Nome Bamako/Senou Frequência 113700 KHZ
Tipo NDB Nome Bamako/Senou Frequência 301 KHZ